createdAt,value
2023-04-10T00:00:00.534Z,45.0
2023-04-10T00:05:00.693Z,45.0
2023-04-10T00:10:00.571Z,45.0
2023-04-10T00:15:00.505Z,45.0
2023-04-10T00:20:00.499Z,45.0
2023-04-10T00:25:00.435Z,45.0
2023-04-10T00:30:00.578Z,45.0
2023-04-10T00:35:00.503Z,45.0
2023-04-10T00:40:00.539Z,45.0
2023-04-10T00:45:00.515Z,45.0
2023-04-10T00:50:00.515Z,45.0
2023-04-10T00:55:00.427Z,45.0
2023-04-10T01:00:00.507Z,45.0
2023-04-10T01:05:00.429Z,45.0
2023-04-10T01:10:00.499Z,45.0
2023-04-10T01:15:00.434Z,45.0
2023-04-10T01:20:00.828Z,45.0
2023-04-10T01:25:00.489Z,45.0
2023-04-10T01:30:00.533Z,45.0
2023-04-10T01:35:00.498Z,45.0
2023-04-10T01:40:00.604Z,66.7
2023-04-10T01:45:00.497Z,67.5
2023-04-10T01:50:00.468Z,67.5
2023-04-10T01:55:00.450Z,67.5
2023-04-10T02:00:00.508Z,67.5
2023-04-10T02:05:00.828Z,67.5
2023-04-10T02:10:00.509Z,332.8
2023-04-10T02:15:00.455Z,315.1
2023-04-10T02:20:00.568Z,315.0
2023-04-10T02:25:00.508Z,315.0
2023-04-10T02:30:00.553Z,315.0
2023-04-10T02:35:00.457Z,315.0
2023-04-10T02:40:00.616Z,315.0
2023-04-10T02:45:00.518Z,334.0
2023-04-10T02:50:00.507Z,337.5
2023-04-10T02:55:00.534Z,337.5
2023-04-10T03:00:00.540Z,21.1
2023-04-10T03:05:00.821Z,22.5
2023-04-10T03:10:00.489Z,22.5
2023-04-10T03:15:00.477Z,22.5
2023-04-10T03:20:00.625Z,22.5
2023-04-10T03:25:00.450Z,22.5
2023-04-10T03:30:01.014Z,22.5
2023-04-10T03:35:00.444Z,22.5
2023-04-10T03:40:00.512Z,22.5
2023-04-10T03:45:00.472Z,22.5
2023-04-10T03:50:00.495Z,22.5
2023-04-10T03:55:00.558Z,43.9
2023-04-10T04:00:00.561Z,45.0
2023-04-10T04:05:00.649Z,45.0
2023-04-10T04:10:00.554Z,45.0
2023-04-10T04:15:00.474Z,45.0
2023-04-10T04:20:00.496Z,45.0
2023-04-10T04:25:00.491Z,45.0
2023-04-10T04:30:00.499Z,45.0
2023-04-10T04:35:00.458Z,24.6
2023-04-10T04:40:00.504Z,22.2
2023-04-10T04:45:00.428Z,45.3
2023-04-10T04:50:00.515Z,65.3
2023-04-10T04:55:00.494Z,43.8
2023-04-10T05:00:00.653Z,51.4
2023-04-10T05:05:00.503Z,52.5
2023-04-10T05:10:00.723Z,43.1
2023-04-10T05:15:00.616Z,58.2
2023-04-10T05:20:00.573Z,42.0
2023-04-10T05:25:00.573Z,46.0
2023-04-10T05:30:00.597Z,74.0
2023-04-10T05:35:00.467Z,52.1
2023-04-10T05:40:00.592Z,55.2
2023-04-10T05:45:00.599Z,67.9
2023-04-10T05:50:00.500Z,64.2
2023-04-10T05:55:00.560Z,73.9
2023-04-10T06:00:00.560Z,66.7
2023-04-10T06:05:00.750Z,52.0
2023-04-10T06:10:00.549Z,45.6
2023-04-10T06:15:00.500Z,66.8
2023-04-10T06:20:00.543Z,73.7
2023-04-10T06:25:00.509Z,77.6
2023-04-10T06:30:00.505Z,69.1
2023-04-10T06:35:00.503Z,58.8
2023-04-10T06:40:00.575Z,70.3
2023-04-10T06:45:00.542Z,101.2
2023-04-10T06:50:00.539Z,67.2
2023-04-10T06:55:00.519Z,87.3
2023-04-10T07:00:00.508Z,76.6
2023-04-10T07:05:00.499Z,74.1
2023-04-10T07:10:00.726Z,139.0
2023-04-10T07:15:00.510Z,179.1
2023-04-10T07:20:00.555Z,161.2
2023-04-10T07:25:00.556Z,160.0
2023-04-10T07:30:00.641Z,176.7
2023-04-10T07:35:00.551Z,176.1
2023-04-10T07:40:00.522Z,170.2
2023-04-10T07:45:00.516Z,173.0
2023-04-10T07:50:00.557Z,187.0
2023-04-10T07:55:00.484Z,165.9
2023-04-10T08:00:00.542Z,163.6
2023-04-10T08:05:01.204Z,158.5
2023-04-10T08:10:00.501Z,130.3
2023-04-10T08:15:00.496Z,150.7
2023-04-10T08:20:00.569Z,195.5
2023-04-10T08:25:00.459Z,189.4
2023-04-10T08:30:00.576Z,167.6
2023-04-10T08:35:00.644Z,167.0
2023-04-10T08:40:00.538Z,167.1
2023-04-10T08:45:00.539Z,114.7
2023-04-10T08:50:00.542Z,184.7
2023-04-10T08:55:00.503Z,185.1
2023-04-10T09:00:23.813Z,160.2
2023-04-10T09:05:00.501Z,183.1
2023-04-10T09:10:00.678Z,183.4
2023-04-10T09:15:00.548Z,167.9
2023-04-10T09:20:00.547Z,178.7
2023-04-10T09:25:00.552Z,189.2
2023-04-10T09:30:00.546Z,162.2
2023-04-10T09:35:00.496Z,187.7
2023-04-10T09:40:00.610Z,178.0
2023-04-10T09:45:00.505Z,174.8
2023-04-10T09:50:00.496Z,165.2
2023-04-10T09:55:00.597Z,188.1
2023-04-10T10:00:00.667Z,156.1
2023-04-10T10:05:00.915Z,188.6
2023-04-10T10:10:00.509Z,195.3
2023-04-10T10:15:00.474Z,189.0
2023-04-10T10:20:00.501Z,157.2
2023-04-10T10:25:00.744Z,162.5
2023-04-10T10:30:29.884Z,163.6
2023-04-10T10:35:00.623Z,125.9
2023-04-10T10:40:00.773Z,172.3
2023-04-10T10:45:00.804Z,157.4
2023-04-10T10:50:00.520Z,142.7
2023-04-10T10:55:00.732Z,158.3
2023-04-10T11:00:00.647Z,175.8
2023-04-10T11:05:00.541Z,118.7
2023-04-10T11:10:00.618Z,180.5
2023-04-10T11:15:00.564Z,164.2
2023-04-10T11:20:00.550Z,171.8
2023-04-10T11:25:00.846Z,162.7
2023-04-10T11:30:00.549Z,177.4
2023-04-10T11:35:05.368Z,171.5
2023-04-10T11:40:00.515Z,166.0
2023-04-10T11:45:01.168Z,174.7
2023-04-10T11:50:00.495Z,182.8
2023-04-10T11:55:00.488Z,165.8
2023-04-10T12:00:00.548Z,168.4
2023-04-10T12:05:00.802Z,137.5
2023-04-10T12:10:00.498Z,155.2
2023-04-10T12:15:02.684Z,169.6
2023-04-10T12:20:00.555Z,166.7
2023-04-10T12:25:00.507Z,172.8
2023-04-10T12:30:00.591Z,165.6
2023-04-10T12:35:00.558Z,190.5
2023-04-10T12:40:00.504Z,166.9
2023-04-10T12:45:00.768Z,185.2
2023-04-10T12:50:00.498Z,184.2
2023-04-10T12:55:00.629Z,171.6
2023-04-10T13:00:00.577Z,175.1
2023-04-10T13:05:00.540Z,158.1
2023-04-10T13:10:00.612Z,153.2
2023-04-10T13:15:00.495Z,164.0
2023-04-10T13:20:00.491Z,167.3
2023-04-10T13:25:00.472Z,164.0
2023-04-10T13:30:00.639Z,169.2
2023-04-10T13:35:00.508Z,165.1
2023-04-10T13:40:00.572Z,165.1
2023-04-10T13:45:00.555Z,164.9
2023-04-10T13:50:00.545Z,156.8
2023-04-10T13:55:00.504Z,163.5
2023-04-10T14:00:00.518Z,165.8
2023-04-10T14:05:00.482Z,167.2
2023-04-10T14:10:00.516Z,155.0
2023-04-10T14:15:00.501Z,169.1
2023-04-10T14:20:00.551Z,174.5
2023-04-10T14:25:14.167Z,160.8
2023-04-10T14:30:00.538Z,170.5
2023-04-10T14:35:00.527Z,162.6
2023-04-10T14:40:00.492Z,167.4
2023-04-10T14:45:00.597Z,171.6
2023-04-10T14:50:00.491Z,164.0
2023-04-10T14:55:00.498Z,163.2
2023-04-10T15:00:00.556Z,171.5
2023-04-10T15:05:00.494Z,165.8
2023-04-10T15:10:00.894Z,164.1
2023-04-10T15:15:00.506Z,177.2
2023-04-10T15:20:00.554Z,162.4
2023-04-10T15:25:00.517Z,156.4
2023-04-10T15:30:00.558Z,165.4
2023-04-10T15:35:00.601Z,168.4
2023-04-10T15:40:00.544Z,153.6
2023-04-10T15:45:00.521Z,154.9
2023-04-10T15:50:00.510Z,163.2
2023-04-10T15:55:00.551Z,144.5
2023-04-10T16:00:00.758Z,163.7
2023-04-10T16:05:01.149Z,157.5
2023-04-10T16:10:01.072Z,158.3
2023-04-10T16:15:00.542Z,162.3
2023-04-10T16:20:00.592Z,157.8
2023-04-10T16:25:00.496Z,168.2
2023-04-10T16:30:00.539Z,166.5
2023-04-10T16:35:00.503Z,163.6
2023-04-10T16:40:00.938Z,163.9
2023-04-10T16:45:00.519Z,175.8
2023-04-10T16:50:00.796Z,156.4
2023-04-10T16:55:00.538Z,166.2
2023-04-10T17:00:01.709Z,163.1
2023-04-10T17:05:00.515Z,155.1
2023-04-10T17:10:01.068Z,153.7
2023-04-10T17:15:00.567Z,158.4
2023-04-10T17:20:00.498Z,160.9
2023-04-10T17:25:00.603Z,165.6
2023-04-10T17:30:00.573Z,145.3
2023-04-10T17:35:00.472Z,162.6
2023-04-10T17:40:00.568Z,149.9
2023-04-10T17:45:00.520Z,157.6
2023-04-10T17:50:00.653Z,161.9
2023-04-10T17:55:00.561Z,142.1
2023-04-10T18:00:00.518Z,160.8
2023-04-10T18:05:00.446Z,155.0
2023-04-10T18:10:00.501Z,156.6
2023-04-10T18:15:00.474Z,150.7
2023-04-10T18:20:00.433Z,149.4
2023-04-10T18:25:00.547Z,157.5
2023-04-10T18:30:00.534Z,144.8
2023-04-10T18:35:00.579Z,148.5
2023-04-10T18:40:17.206Z,148.2
2023-04-10T18:45:00.407Z,154.0
2023-04-10T18:50:00.519Z,146.9
2023-04-10T18:55:00.479Z,154.9
2023-04-10T19:00:00.694Z,155.5
2023-04-10T19:05:00.441Z,149.4
2023-04-10T19:10:00.537Z,155.3
2023-04-10T19:15:00.499Z,155.0
2023-04-10T19:20:00.664Z,160.7
2023-04-10T19:25:00.510Z,153.5
2023-04-10T19:30:00.589Z,162.4
2023-04-10T19:35:00.494Z,157.2
2023-04-10T19:40:00.504Z,153.0
2023-04-10T19:45:00.439Z,160.3
2023-04-10T19:50:00.790Z,162.9
2023-04-10T19:55:00.625Z,155.6
2023-04-10T20:00:00.506Z,162.9
2023-04-10T20:05:00.772Z,166.0
2023-04-10T20:10:00.491Z,162.7
2023-04-10T20:15:00.500Z,164.8
2023-04-10T20:20:00.571Z,160.0
2023-04-10T20:25:00.663Z,166.7
2023-04-10T20:30:00.554Z,157.1
2023-04-10T20:35:00.449Z,156.9
2023-04-10T20:40:00.497Z,163.2
2023-04-10T20:45:00.541Z,163.9
2023-04-10T20:50:00.524Z,164.1
2023-04-10T20:55:00.438Z,167.1
2023-04-10T21:00:00.571Z,171.1
2023-04-10T21:05:00.466Z,164.4
2023-04-10T21:10:00.532Z,160.9
2023-04-10T21:15:00.516Z,169.8
2023-04-10T21:20:00.442Z,171.7
2023-04-10T21:25:00.500Z,163.6
2023-04-10T21:30:00.546Z,164.8
2023-04-10T21:35:00.448Z,171.0
2023-04-10T21:40:00.514Z,160.1
2023-04-10T21:45:00.488Z,159.3
2023-04-10T21:50:00.709Z,161.4
2023-04-10T21:55:00.444Z,161.1
2023-04-10T22:00:01.047Z,162.0
2023-04-10T22:05:00.556Z,175.6
2023-04-10T22:10:00.440Z,159.3
2023-04-10T22:15:00.540Z,163.5
2023-04-10T22:20:00.504Z,164.6
2023-04-10T22:25:00.508Z,161.4
2023-04-10T22:30:04.987Z,165.3
2023-04-10T22:35:00.576Z,161.1
2023-04-10T22:40:00.622Z,165.1
2023-04-10T22:45:00.523Z,168.2
2023-04-10T22:50:00.558Z,163.2
2023-04-10T22:55:00.540Z,172.2
2023-04-10T23:00:01.280Z,166.8
2023-04-10T23:05:00.429Z,166.2
2023-04-10T23:10:00.509Z,172.6
2023-04-10T23:15:00.520Z,170.0
2023-04-10T23:20:00.506Z,167.1
2023-04-10T23:25:00.454Z,168.3
2023-04-10T23:30:00.499Z,164.3
2023-04-10T23:35:00.454Z,164.3
2023-04-10T23:40:00.486Z,163.3
2023-04-10T23:45:00.430Z,169.2
2023-04-10T23:50:00.600Z,173.9
2023-04-10T23:55:00.504Z,162.4
